Olivenhain, California
Current Conditions -  °F | °C
As of 5:53 AM on Thursday 27 Nov 2014 (Local Time) from KCRQ Reporting Station
Clear Clear  
Wind Chill: 58°   Ceiling: Unl
Heat Index: 58°   Visibility: 10mi
Dew Point: 27°   Wind: 0mph
Humidity: 31%   Direction: NA
Pressure: 30.07"   Gusts: NA
Location:  33.0541°N, 117.25°W
Report Text: KCRQ 271353Z AUTO 00000KT 10SM CLR 14/M03 A3007 RMK AO2 SLP181 T01441028 TSNO
Loading
Personal Weather Stations






























Interactive Weather Map New forecast layout! Learn more

10-Day Weather Forecast

Advertisements
Track Severe Weather on mobile